sensor_id;sensor_type;location;lat;lon;timestamp;pressure;altitude;pressure_sealevel;temperature;humidity
25855;BME280;13680;49.936;11.344;2024-01-07T00:00:58;96084.56;;;5.05;84.35
25855;BME280;13680;49.936;11.344;2024-01-07T00:03:23;96083.22;;;5.08;84.66
25855;BME280;13680;49.936;11.344;2024-01-07T00:05:48;96085.25;;;5.16;83.55
25855;BME280;13680;49.936;11.344;2024-01-07T00:08:14;96090.59;;;4.82;85.09
25855;BME280;13680;49.936;11.344;2024-01-07T00:10:39;96094.78;;;4.93;83.75
25855;BME280;13680;49.936;11.344;2024-01-07T00:13:04;96095.03;;;4.97;84.00
25855;BME280;13680;49.936;11.344;2024-01-07T00:15:30;96092.00;;;5.08;83.32
25855;BME280;13680;49.936;11.344;2024-01-07T00:17:56;96088.94;;;5.20;82.94
25855;BME280;13680;49.936;11.344;2024-01-07T00:20:21;96099.59;;;5.20;82.73
25855;BME280;13680;49.936;11.344;2024-01-07T00:22:47;96094.63;;;4.79;83.89
25855;BME280;13680;49.936;11.344;2024-01-07T00:25:12;96097.69;;;4.62;84.37
25855;BME280;13680;49.936;11.344;2024-01-07T00:27:37;96099.25;;;4.68;84.20
25855;BME280;13680;49.936;11.344;2024-01-07T00:30:03;96106.75;;;4.16;85.38
25855;BME280;13680;49.936;11.344;2024-01-07T00:32:29;96104.28;;;4.70;83.60
25855;BME280;13680;49.936;11.344;2024-01-07T00:34:54;96111.66;;;4.38;84.39
25855;BME280;13680;49.936;11.344;2024-01-07T00:37:19;96105.06;;;4.31;84.66
25855;BME280;13680;49.936;11.344;2024-01-07T00:39:45;96104.53;;;4.29;84.90
25855;BME280;13680;49.936;11.344;2024-01-07T00:42:11;96104.66;;;4.58;83.56
25855;BME280;13680;49.936;11.344;2024-01-07T00:44:37;96107.31;;;4.58;83.68
25855;BME280;13680;49.936;11.344;2024-01-07T00:47:02;96110.09;;;4.32;84.52
25855;BME280;13680;49.936;11.344;2024-01-07T00:49:28;96107.88;;;4.50;84.97
25855;BME280;13680;49.936;11.344;2024-01-07T00:51:53;96106.31;;;4.43;84.25
25855;BME280;13680;49.936;11.344;2024-01-07T00:54:18;96118.19;;;4.12;86.06
25855;BME280;13680;49.936;11.344;2024-01-07T00:56:45;96108.34;;;4.17;85.32
25855;BME280;13680;49.936;11.344;2024-01-07T00:59:10;96121.38;;;4.19;84.80
25855;BME280;13680;49.936;11.344;2024-01-07T01:01:36;96125.38;;;4.16;84.64
25855;BME280;13680;49.936;11.344;2024-01-07T01:04:01;96136.59;;;4.03;84.00
25855;BME280;13680;49.936;11.344;2024-01-07T01:06:26;96128.22;;;4.30;83.76
25855;BME280;13680;49.936;11.344;2024-01-07T01:08:52;96136.88;;;3.96;84.30
25855;BME280;13680;49.936;11.344;2024-01-07T01:11:17;96138.75;;;4.01;84.46
25855;BME280;13680;49.936;11.344;2024-01-07T01:13:42;96141.75;;;3.63;85.93
25855;BME280;13680;49.936;11.344;2024-01-07T01:16:08;96139.25;;;3.98;84.91
25855;BME280;13680;49.936;11.344;2024-01-07T01:18:33;96146.56;;;3.51;85.97
25855;BME280;13680;49.936;11.344;2024-01-07T01:20:58;96134.47;;;4.00;84.14
25855;BME280;13680;49.936;11.344;2024-01-07T01:23:24;96139.75;;;4.10;84.08
25855;BME280;13680;49.936;11.344;2024-01-07T01:25:49;96146.88;;;4.25;82.29
25855;BME280;13680;49.936;11.344;2024-01-07T01:28:14;96135.34;;;3.80;85.00
25855;BME280;13680;49.936;11.344;2024-01-07T01:30:39;96133.19;;;3.87;84.57
25855;BME280;13680;49.936;11.344;2024-01-07T01:33:06;96142.78;;;3.77;84.62
25855;BME280;13680;49.936;11.344;2024-01-07T01:35:31;96140.38;;;3.81;83.72
25855;BME280;13680;49.936;11.344;2024-01-07T01:37:56;96145.91;;;4.00;83.29
25855;BME280;13680;49.936;11.344;2024-01-07T01:40:22;96150.97;;;3.97;83.42
25855;BME280;13680;49.936;11.344;2024-01-07T01:42:47;96150.28;;;3.65;84.10
25855;BME280;13680;49.936;11.344;2024-01-07T01:45:15;96151.56;;;3.83;83.19
25855;BME280;13680;49.936;11.344;2024-01-07T01:47:41;96156.69;;;3.43;85.04
25855;BME280;13680;49.936;11.344;2024-01-07T01:50:09;96154.53;;;3.51;84.76
25855;BME280;13680;49.936;11.344;2024-01-07T01:52:35;96151.91;;;3.35;85.49
25855;BME280;13680;49.936;11.344;2024-01-07T01:55:01;96159.88;;;3.35;85.77
25855;BME280;13680;49.936;11.344;2024-01-07T01:57:32;96159.88;;;3.30;85.94
25855;BME280;13680;49.936;11.344;2024-01-07T01:59:59;96158.31;;;3.39;85.22
25855;BME280;13680;49.936;11.344;2024-01-07T02:02:29;96143.91;;;3.46;85.24
25855;BME280;13680;49.936;11.344;2024-01-07T02:04:56;96149.75;;;3.58;84.39
25855;BME280;13680;49.936;11.344;2024-01-07T02:07:22;96151.13;;;3.24;84.68
25855;BME280;13680;49.936;11.344;2024-01-07T02:09:47;96146.84;;;3.39;84.41
25855;BME280;13680;49.936;11.344;2024-01-07T02:12:12;96153.00;;;2.98;86.31
25855;BME280;13680;49.936;11.344;2024-01-07T02:14:38;96150.88;;;3.10;85.58
25855;BME280;13680;49.936;11.344;2024-01-07T02:17:04;96153.22;;;3.43;85.32
25855;BME280;13680;49.936;11.344;2024-01-07T02:19:29;96154.78;;;3.59;83.54
25855;BME280;13680;49.936;11.344;2024-01-07T02:21:55;96157.19;;;3.56;83.81
25855;BME280;13680;49.936;11.344;2024-01-07T02:24:20;96154.53;;;3.66;83.61
25855;BME280;13680;49.936;11.344;2024-01-07T02:26:45;96168.38;;;3.53;83.69
25855;BME280;13680;49.936;11.344;2024-01-07T02:29:11;96169.16;;;3.64;83.66
25855;BME280;13680;49.936;11.344;2024-01-07T02:31:36;96159.38;;;3.28;84.09
25855;BME280;13680;49.936;11.344;2024-01-07T02:34:01;96159.34;;;3.02;84.05
25855;BME280;13680;49.936;11.344;2024-01-07T02:36:26;96169.47;;;2.90;85.48
25855;BME280;13680;49.936;11.344;2024-01-07T02:38:52;96165.22;;;2.94;85.67
25855;BME280;13680;49.936;11.344;2024-01-07T02:41:17;96174.00;;;3.25;84.05
25855;BME280;13680;49.936;11.344;2024-01-07T02:43:42;96159.34;;;3.02;85.23
25855;BME280;13680;49.936;11.344;2024-01-07T02:46:08;96169.47;;;2.90;85.13
25855;BME280;13680;49.936;11.344;2024-01-07T02:48:33;96165.69;;;2.65;85.96
25855;BME280;13680;49.936;11.344;2024-01-07T02:50:59;96171.06;;;3.17;84.20
25855;BME280;13680;49.936;11.344;2024-01-07T02:53:24;96169.16;;;3.43;82.49
25855;BME280;13680;49.936;11.344;2024-01-07T02:55:49;96172.91;;;3.26;82.63
25855;BME280;13680;49.936;11.344;2024-01-07T02:58:15;96175.56;;;3.42;81.94
25855;BME280;13680;49.936;11.344;2024-01-07T03:00:40;96181.94;;;3.00;83.57
25855;BME280;13680;49.936;11.344;2024-01-07T03:03:06;96174.75;;;2.85;84.01
25855;BME280;13680;49.936;11.344;2024-01-07T03:05:31;96174.78;;;2.90;84.02
25855;BME280;13680;49.936;11.344;2024-01-07T03:07:58;96179.03;;;3.11;82.53
25855;BME280;13680;49.936;11.344;2024-01-07T03:10:24;96178.75;;;2.98;83.96
25855;BME280;13680;49.936;11.344;2024-01-07T03:12:50;96185.34;;;2.64;85.03
25855;BME280;13680;49.936;11.344;2024-01-07T03:15:15;96190.69;;;2.74;84.24
25855;BME280;13680;49.936;11.344;2024-01-07T03:17:40;96206.75;;;2.37;85.49
25855;BME280;13680;49.936;11.344;2024-01-07T03:20:06;96192.19;;;2.50;85.90
25855;BME280;13680;49.936;11.344;2024-01-07T03:22:32;96199.63;;;2.42;85.16
25855;BME280;13680;49.936;11.344;2024-01-07T03:24:57;96197.78;;;2.48;84.57
25855;BME280;13680;49.936;11.344;2024-01-07T03:27:22;96199.69;;;2.63;84.29
25855;BME280;13680;49.936;11.344;2024-01-07T03:29:47;96205.50;;;2.65;83.40
25855;BME280;13680;49.936;11.344;2024-01-07T03:32:13;96199.19;;;2.87;82.40
25855;BME280;13680;49.936;11.344;2024-01-07T03:34:38;96196.25;;;2.78;82.80
25855;BME280;13680;49.936;11.344;2024-01-07T03:37:05;96199.16;;;2.66;83.19
25855;BME280;13680;49.936;11.344;2024-01-07T03:39:32;96212.13;;;2.62;83.10
25855;BME280;13680;49.936;11.344;2024-01-07T03:41:58;96201.19;;;2.38;84.01
25855;BME280;13680;49.936;11.344;2024-01-07T03:44:23;96200.19;;;2.55;83.65
25855;BME280;13680;49.936;11.344;2024-01-07T03:46:48;96206.53;;;2.54;83.97
25855;BME280;13680;49.936;11.344;2024-01-07T03:49:14;96212.56;;;2.23;84.78
25855;BME280;13680;49.936;11.344;2024-01-07T03:51:39;96217.94;;;2.44;83.22
25855;BME280;13680;49.936;11.344;2024-01-07T03:54:05;96217.34;;;2.26;82.86
25855;BME280;13680;49.936;11.344;2024-01-07T03:56:30;96210.34;;;2.05;84.08
25855;BME280;13680;49.936;11.344;2024-01-07T03:58:56;96212.56;;;2.23;83.32
25855;BME280;13680;49.936;11.344;2024-01-07T04:01:21;96208.69;;;2.62;82.14
25855;BME280;13680;49.936;11.344;2024-01-07T04:03:46;96216.16;;;2.86;80.44
25855;BME280;13680;49.936;11.344;2024-01-07T04:06:12;96224.03;;;2.44;81.22
25855;BME280;13680;49.936;11.344;2024-01-07T04:08:37;96219.59;;;2.66;80.72
25855;BME280;13680;49.936;11.344;2024-01-07T04:11:03;96225.53;;;2.20;81.73
25855;BME280;13680;49.936;11.344;2024-01-07T04:13:28;96238.50;;;2.11;82.21
25855;BME280;13680;49.936;11.344;2024-01-07T04:15:53;96232.75;;;1.82;83.37
25855;BME280;13680;49.936;11.344;2024-01-07T04:18:18;96236.66;;;2.22;82.38
25855;BME280;13680;49.936;11.344;2024-01-07T04:20:44;96242.94;;;2.05;82.26
25855;BME280;13680;49.936;11.344;2024-01-07T04:23:09;96241.94;;;2.17;81.49
25855;BME280;13680;49.936;11.344;2024-01-07T04:25:34;96246.25;;;2.28;81.00
25855;BME280;13680;49.936;11.344;2024-01-07T04:28:00;96246.28;;;1.80;82.46
25855;BME280;13680;49.936;11.344;2024-01-07T04:30:25;96245.97;;;2.29;81.90
25855;BME280;13680;49.936;11.344;2024-01-07T04:32:50;96237.63;;;2.00;82.15
25855;BME280;13680;49.936;11.344;2024-01-07T04:35:16;96249.34;;;2.04;82.33
25855;BME280;13680;49.936;11.344;2024-01-07T04:37:41;96244.25;;;2.03;82.33
25855;BME280;13680;49.936;11.344;2024-01-07T04:40:07;96247.28;;;2.22;81.96
25855;BME280;13680;49.936;11.344;2024-01-07T04:42:32;96267.56;;;1.95;82.07
25855;BME280;13680;49.936;11.344;2024-01-07T04:44:58;96260.22;;;2.13;81.76
25855;BME280;13680;49.936;11.344;2024-01-07T04:47:25;96260.13;;;2.45;80.74
25855;BME280;13680;49.936;11.344;2024-01-07T04:49:51;96263.03;;;2.39;80.96
25855;BME280;13680;49.936;11.344;2024-01-07T04:52:17;96264.94;;;2.54;80.13
25855;BME280;13680;49.936;11.344;2024-01-07T04:54:42;96263.34;;;1.62;83.73
25855;BME280;13680;49.936;11.344;2024-01-07T04:57:08;96271.09;;;1.36;85.36
25855;BME280;13680;49.936;11.344;2024-01-07T04:59:33;96275.69;;;1.84;83.97
25855;BME280;13680;49.936;11.344;2024-01-07T05:01:58;96281.56;;;1.86;84.01
25855;BME280;13680;49.936;11.344;2024-01-07T05:04:23;96269.03;;;2.19;82.73
25855;BME280;13680;49.936;11.344;2024-01-07T05:06:49;96273.97;;;2.05;81.39
25855;BME280;13680;49.936;11.344;2024-01-07T05:09:15;96287.81;;;2.12;82.84
25855;BME280;13680;49.936;11.344;2024-01-07T05:11:40;96287.56;;;1.76;84.14
25855;BME280;13680;49.936;11.344;2024-01-07T05:14:05;96292.38;;;1.79;83.52
25855;BME280;13680;49.936;11.344;2024-01-07T05:16:31;96297.47;;;1.86;83.40
25855;BME280;13680;49.936;11.344;2024-01-07T05:18:56;96291.03;;;1.76;84.44
25855;BME280;13680;49.936;11.344;2024-01-07T05:21:22;96296.56;;;2.12;82.46
25855;BME280;13680;49.936;11.344;2024-01-07T05:23:47;96293.88;;;2.07;82.68
25855;BME280;13680;49.936;11.344;2024-01-07T05:26:12;96290.78;;;1.78;83.58
25855;BME280;13680;49.936;11.344;2024-01-07T05:28:38;96306.00;;;1.93;82.74
25855;BME280;13680;49.936;11.344;2024-01-07T05:31:03;96299.47;;;1.73;83.50
25855;BME280;13680;49.936;11.344;2024-01-07T05:33:28;96300.94;;;1.54;84.43
25855;BME280;13680;49.936;11.344;2024-01-07T05:35:54;96312.50;;;2.12;82.27
25855;BME280;13680;49.936;11.344;2024-01-07T05:38:19;96309.75;;;1.97;82.16
25855;BME280;13680;49.936;11.344;2024-01-07T05:40:44;96318.97;;;1.89;81.93
25855;BME280;13680;49.936;11.344;2024-01-07T05:43:10;96310.34;;;1.39;82.83
25855;BME280;13680;49.936;11.344;2024-01-07T05:45:35;96327.81;;;1.68;82.85
25855;BME280;13680;49.936;11.344;2024-01-07T05:48:00;96318.03;;;1.73;82.60
25855;BME280;13680;49.936;11.344;2024-01-07T05:50:26;96325.06;;;1.90;81.13
25855;BME280;13680;49.936;11.344;2024-01-07T05:52:51;96324.75;;;1.86;81.47
25855;BME280;13680;49.936;11.344;2024-01-07T05:55:17;96324.91;;;1.69;81.98
25855;BME280;13680;49.936;11.344;2024-01-07T05:57:43;96322.84;;;1.76;82.19
25855;BME280;13680;49.936;11.344;2024-01-07T06:00:08;96328.13;;;2.14;80.32
25855;BME280;13680;49.936;11.344;2024-01-07T06:02:36;96324.03;;;1.96;81.54
25855;BME280;13680;49.936;11.344;2024-01-07T06:05:02;96327.22;;;1.60;82.48
25855;BME280;13680;49.936;11.344;2024-01-07T06:07:28;96323.69;;;1.82;82.82
25855;BME280;13680;49.936;11.344;2024-01-07T06:09:53;96332.16;;;1.79;80.85
25855;BME280;13680;49.936;11.344;2024-01-07T06:12:18;96330.50;;;1.73;81.69
25855;BME280;13680;49.936;11.344;2024-01-07T06:14:44;96328.59;;;1.68;80.59
25855;BME280;13680;49.936;11.344;2024-01-07T06:17:09;96333.59;;;1.32;82.15
25855;BME280;13680;49.936;11.344;2024-01-07T06:19:34;96342.28;;;1.55;81.92
25855;BME280;13680;49.936;11.344;2024-01-07T06:22:00;96340.25;;;1.67;80.91
25855;BME280;13680;49.936;11.344;2024-01-07T06:24:25;96348.03;;;1.46;80.89
25855;BME280;13680;49.936;11.344;2024-01-07T06:26:50;96354.94;;;1.20;82.29
25855;BME280;13680;49.936;11.344;2024-01-07T06:29:16;96359.09;;;1.16;82.58
25855;BME280;13680;49.936;11.344;2024-01-07T06:31:44;96354.56;;;1.39;81.69
25855;BME280;13680;49.936;11.344;2024-01-07T06:34:14;96353.94;;;1.54;81.11
25855;BME280;13680;49.936;11.344;2024-01-07T06:36:40;96354.84;;;1.37;81.03
25855;BME280;13680;49.936;11.344;2024-01-07T06:39:09;96362.50;;;0.89;82.96
25855;BME280;13680;49.936;11.344;2024-01-07T06:41:35;96366.94;;;1.06;82.48
25855;BME280;13680;49.936;11.344;2024-01-07T06:44:01;96366.50;;;0.92;82.16
25855;BME280;13680;49.936;11.344;2024-01-07T06:46:26;96362.16;;;1.30;81.53
25855;BME280;13680;49.936;11.344;2024-01-07T06:48:52;96366.09;;;1.00;81.90
25855;BME280;13680;49.936;11.344;2024-01-07T06:51:17;96374.84;;;0.78;81.90
25855;BME280;13680;49.936;11.344;2024-01-07T06:53:43;96380.75;;;0.86;82.12
25855;BME280;13680;49.936;11.344;2024-01-07T06:56:08;96380.25;;;0.89;82.76
25855;BME280;13680;49.936;11.344;2024-01-07T06:58:33;96391.34;;;0.86;81.99
25855;BME280;13680;49.936;11.344;2024-01-07T07:00:59;96385.19;;;1.02;81.81
25855;BME280;13680;49.936;11.344;2024-01-07T07:03:24;96386.09;;;1.13;81.58
25855;BME280;13680;49.936;11.344;2024-01-07T07:05:49;96390.97;;;0.99;82.38
25855;BME280;13680;49.936;11.344;2024-01-07T07:08:15;96388.41;;;0.65;81.80
25855;BME280;13680;49.936;11.344;2024-01-07T07:10:41;96394.59;;;0.71;82.00
25855;BME280;13680;49.936;11.344;2024-01-07T07:13:06;96396.13;;;0.89;81.40
25855;BME280;13680;49.936;11.344;2024-01-07T07:15:31;96397.69;;;0.45;83.34
25855;BME280;13680;49.936;11.344;2024-01-07T07:17:57;96395.84;;;0.29;83.76
25855;BME280;13680;49.936;11.344;2024-01-07T07:20:22;96407.38;;;0.57;83.33
25855;BME280;13680;49.936;11.344;2024-01-07T07:22:47;96411.09;;;0.39;83.88
25855;BME280;13680;49.936;11.344;2024-01-07T07:25:13;96412.28;;;0.31;84.16
25855;BME280;13680;49.936;11.344;2024-01-07T07:27:38;96413.53;;;0.62;82.97
25855;BME280;13680;49.936;11.344;2024-01-07T07:30:05;96419.00;;;0.56;82.65
25855;BME280;13680;49.936;11.344;2024-01-07T07:32:30;96428.72;;;0.33;83.60
25855;BME280;13680;49.936;11.344;2024-01-07T07:34:56;96439.22;;;0.28;83.54
25855;BME280;13680;49.936;11.344;2024-01-07T07:37:21;96441.28;;;0.43;84.05
25855;BME280;13680;49.936;11.344;2024-01-07T07:39:46;96458.44;;;0.57;82.41
25855;BME280;13680;49.936;11.344;2024-01-07T07:42:11;96451.38;;;0.46;83.42
25855;BME280;13680;49.936;11.344;2024-01-07T07:44:37;96449.78;;;0.45;83.98
25855;BME280;13680;49.936;11.344;2024-01-07T07:47:04;96460.22;;;0.52;83.66
25855;BME280;13680;49.936;11.344;2024-01-07T07:49:30;96463.50;;;0.08;84.58
25855;BME280;13680;49.936;11.344;2024-01-07T07:51:56;96463.25;;;0.09;83.70
25855;BME280;13680;49.936;11.344;2024-01-07T07:54:22;96474.25;;;-0.28;85.14
25855;BME280;13680;49.936;11.344;2024-01-07T07:56:48;96471.09;;;0.04;84.78
25855;BME280;13680;49.936;11.344;2024-01-07T07:59:13;96485.59;;;0.19;84.12
25855;BME280;13680;49.936;11.344;2024-01-07T08:01:38;96488.69;;;-0.19;84.40
25855;BME280;13680;49.936;11.344;2024-01-07T08:04:04;96487.91;;;-0.31;85.80
25855;BME280;13680;49.936;11.344;2024-01-07T08:06:30;96484.94;;;-0.06;85.54
25855;BME280;13680;49.936;11.344;2024-01-07T08:08:56;96497.72;;;0.14;84.53
25855;BME280;13680;49.936;11.344;2024-01-07T08:11:21;96499.78;;;0.12;83.66
25855;BME280;13680;49.936;11.344;2024-01-07T08:13:46;96501.69;;;0.00;83.99
25855;BME280;13680;49.936;11.344;2024-01-07T08:16:13;96506.56;;;-0.38;85.43
25855;BME280;13680;49.936;11.344;2024-01-07T08:18:38;96496.41;;;0.00;85.05
25855;BME280;13680;49.936;11.344;2024-01-07T08:21:04;96504.38;;;-0.12;84.83
25855;BME280;13680;49.936;11.344;2024-01-07T08:23:29;96502.75;;;-0.01;84.40
25855;BME280;13680;49.936;11.344;2024-01-07T08:25:54;96512.06;;;-0.10;84.62
25855;BME280;13680;49.936;11.344;2024-01-07T08:28:20;96517.13;;;-0.09;84.28
25855;BME280;13680;49.936;11.344;2024-01-07T08:30:46;96512.44;;;0.10;82.48
25855;BME280;13680;49.936;11.344;2024-01-07T08:33:11;96518.69;;;0.04;83.57
25855;BME280;13680;49.936;11.344;2024-01-07T08:35:36;96519.78;;;0.37;82.32
25855;BME280;13680;49.936;11.344;2024-01-07T08:38:02;96511.03;;;0.37;82.10
25855;BME280;13680;49.936;11.344;2024-01-07T08:40:28;96507.34;;;0.21;81.64
25855;BME280;13680;49.936;11.344;2024-01-07T08:42:55;96511.09;;;0.25;81.72
25855;BME280;13680;49.936;11.344;2024-01-07T08:45:20;96518.97;;;-0.09;82.90
25855;BME280;13680;49.936;11.344;2024-01-07T08:47:45;96526.72;;;0.09;81.88
25855;BME280;13680;49.936;11.344;2024-01-07T08:50:11;96521.72;;;-0.45;82.99
25855;BME280;13680;49.936;11.344;2024-01-07T08:52:37;96525.34;;;-0.22;84.08
25855;BME280;13680;49.936;11.344;2024-01-07T08:55:03;96528.56;;;-0.61;85.21
25855;BME280;13680;49.936;11.344;2024-01-07T08:57:34;96525.28;;;-0.10;83.64
25855;BME280;13680;49.936;11.344;2024-01-07T08:59:59;96525.53;;;-0.12;82.22
25855;BME280;13680;49.936;11.344;2024-01-07T09:02:25;96528.56;;;-0.20;83.82
25855;BME280;13680;49.936;11.344;2024-01-07T09:04:50;96522.88;;;0.17;82.26
25855;BME280;13680;49.936;11.344;2024-01-07T09:07:16;96545.88;;;-0.12;82.50
25855;BME280;13680;49.936;11.344;2024-01-07T09:09:42;96548.22;;;-0.28;82.58
25855;BME280;13680;49.936;11.344;2024-01-07T09:12:07;96563.44;;;-0.06;82.93
25855;BME280;13680;49.936;11.344;2024-01-07T09:14:32;96560.00;;;-0.59;84.34
25855;BME280;13680;49.936;11.344;2024-01-07T09:16:58;96561.09;;;-0.03;82.85
25855;BME280;13680;49.936;11.344;2024-01-07T09:19:23;96553.97;;;-0.31;83.30
25855;BME280;13680;49.936;11.344;2024-01-07T09:21:48;96560.59;;;-0.17;83.20
25855;BME280;13680;49.936;11.344;2024-01-07T09:24:14;96559.38;;;0.03;82.49
25855;BME280;13680;49.936;11.344;2024-01-07T09:26:39;96574.44;;;-0.38;83.13
25855;BME280;13680;49.936;11.344;2024-01-07T09:29:06;96574.19;;;-0.25;83.60
25855;BME280;13680;49.936;11.344;2024-01-07T09:31:31;96573.69;;;-0.62;84.87
25855;BME280;13680;49.936;11.344;2024-01-07T09:33:56;96569.84;;;-0.43;84.36
25855;BME280;13680;49.936;11.344;2024-01-07T09:36:21;96575.84;;;0.22;81.52
25855;BME280;13680;49.936;11.344;2024-01-07T09:38:47;96575.31;;;0.08;82.32
25855;BME280;13680;49.936;11.344;2024-01-07T09:41:12;96575.72;;;0.00;81.62
25855;BME280;13680;49.936;11.344;2024-01-07T09:43:38;96577.00;;;-0.14;81.49
25855;BME280;13680;49.936;11.344;2024-01-07T09:46:03;96582.59;;;-0.40;83.44
25855;BME280;13680;49.936;11.344;2024-01-07T09:48:29;96580.28;;;-0.36;82.42
25855;BME280;13680;49.936;11.344;2024-01-07T09:50:56;96583.22;;;-0.21;81.59
25855;BME280;13680;49.936;11.344;2024-01-07T09:53:25;96584.66;;;-0.30;81.39
25855;BME280;13680;49.936;11.344;2024-01-07T09:56:00;96583.88;;;-0.54;82.25
25855;BME280;13680;49.936;11.344;2024-01-07T09:58:27;96589.47;;;-0.39;81.45
25855;BME280;13680;49.936;11.344;2024-01-07T10:00:53;96583.13;;;-0.26;80.72
25855;BME280;13680;49.936;11.344;2024-01-07T10:03:19;96578.66;;;0.04;80.54
25855;BME280;13680;49.936;11.344;2024-01-07T10:05:44;96578.66;;;0.32;78.65
25855;BME280;13680;49.936;11.344;2024-01-07T10:08:10;96584.47;;;0.46;78.07
25855;BME280;13680;49.936;11.344;2024-01-07T10:10:35;96577.22;;;0.25;77.64
25855;BME280;13680;49.936;11.344;2024-01-07T10:13:01;96581.81;;;-0.40;79.80
25855;BME280;13680;49.936;11.344;2024-01-07T10:15:27;96583.72;;;-0.24;80.54
25855;BME280;13680;49.936;11.344;2024-01-07T10:18:02;96588.06;;;-0.18;79.98
25855;BME280;13680;49.936;11.344;2024-01-07T10:20:28;96590.16;;;0.09;79.37
25855;BME280;13680;49.936;11.344;2024-01-07T10:22:53;96585.56;;;0.05;78.90
25855;BME280;13680;49.936;11.344;2024-01-07T10:25:18;96604.88;;;-0.47;80.88
25855;BME280;13680;49.936;11.344;2024-01-07T10:27:44;96591.56;;;-0.53;82.96
25855;BME280;13680;49.936;11.344;2024-01-07T10:30:09;96604.06;;;-0.36;81.96
25855;BME280;13680;49.936;11.344;2024-01-07T10:32:36;96610.38;;;-0.25;81.16
25855;BME280;13680;49.936;11.344;2024-01-07T10:35:05;96609.84;;;-0.63;81.55
25855;BME280;13680;49.936;11.344;2024-01-07T10:37:31;96611.56;;;-0.57;81.30
25855;BME280;13680;49.936;11.344;2024-01-07T10:40:00;96620.28;;;-0.44;81.15
25855;BME280;13680;49.936;11.344;2024-01-07T10:42:33;96603.66;;;-0.57;82.21
25855;BME280;13680;49.936;11.344;2024-01-07T10:45:01;96608.91;;;-0.45;81.82
25855;BME280;13680;49.936;11.344;2024-01-07T10:47:31;96618.31;;;-0.37;81.27
25855;BME280;13680;49.936;11.344;2024-01-07T10:49:58;96621.41;;;-0.40;81.19
25855;BME280;13680;49.936;11.344;2024-01-07T10:52:27;96617.66;;;-0.44;80.99
25855;BME280;13680;49.936;11.344;2024-01-07T10:54:56;96618.91;;;-0.71;81.49
25855;BME280;13680;49.936;11.344;2024-01-07T10:57:41;96632.81;;;0.01;79.58
25855;BME280;13680;49.936;11.344;2024-01-07T11:00:09;96622.59;;;-0.72;81.21
25855;BME280;13680;49.936;11.344;2024-01-07T11:02:41;96624.19;;;-0.59;80.12
25855;BME280;13680;49.936;11.344;2024-01-07T11:05:17;96631.31;;;-0.47;79.95
25855;BME280;13680;49.936;11.344;2024-01-07T11:08:25;96619.59;;;-0.75;80.45
25855;BME280;13680;49.936;11.344;2024-01-07T11:11:04;96622.00;;;-0.50;80.10
25855;BME280;13680;49.936;11.344;2024-01-07T11:13:32;96631.84;;;-0.34;79.39
25855;BME280;13680;49.936;11.344;2024-01-07T11:15:59;96634.84;;;-0.30;78.87
25855;BME280;13680;49.936;11.344;2024-01-07T11:18:26;96630.50;;;-0.48;78.98
25855;BME280;13680;49.936;11.344;2024-01-07T11:20:58;96637.75;;;-0.55;78.68
25855;BME280;13680;49.936;11.344;2024-01-07T11:25:58;96640.97;;;-0.53;78.46
25855;BME280;13680;49.936;11.344;2024-01-07T11:31:21;96642.84;;;-0.13;76.00
25855;BME280;13680;49.936;11.344;2024-01-07T11:33:49;96641.94;;;-0.19;75.86
25855;BME280;13680;49.936;11.344;2024-01-07T11:36:17;96637.63;;;-0.72;77.21
25855;BME280;13680;49.936;11.344;2024-01-07T11:38:49;96649.91;;;-0.54;77.24
25855;BME280;13680;49.936;11.344;2024-01-07T11:41:16;96638.44;;;-0.84;77.20
25855;BME280;13680;49.936;11.344;2024-01-07T11:43:57;96635.22;;;-0.38;75.90
25855;BME280;13680;49.936;11.344;2024-01-07T11:46:25;96631.41;;;-0.42;75.92
25855;BME280;13680;49.936;11.344;2024-01-07T11:48:55;96638.22;;;-0.58;76.86
25855;BME280;13680;49.936;11.344;2024-01-07T11:51:30;96636.03;;;-0.50;76.04
25855;BME280;13680;49.936;11.344;2024-01-07T11:54:00;96639.63;;;-0.03;74.67
25855;BME280;13680;49.936;11.344;2024-01-07T11:56:25;96629.38;;;0.01;74.50
25855;BME280;13680;49.936;11.344;2024-01-07T11:58:54;96639.91;;;0.12;74.02
25855;BME280;13680;49.936;11.344;2024-01-07T12:01:21;96633.94;;;-0.36;74.71
25855;BME280;13680;49.936;11.344;2024-01-07T12:03:47;96632.22;;;-0.66;76.53
25855;BME280;13680;49.936;11.344;2024-01-07T12:06:13;96633.75;;;-0.81;76.20
25855;BME280;13680;49.936;11.344;2024-01-07T12:08:45;96650.16;;;-0.68;76.91
25855;BME280;13680;49.936;11.344;2024-01-07T12:11:11;96632.69;;;-0.45;75.48
25855;BME280;13680;49.936;11.344;2024-01-07T12:13:37;96647.03;;;-0.53;75.01
25855;BME280;13680;49.936;11.344;2024-01-07T12:16:05;96639.91;;;-0.40;74.84
25855;BME280;13680;49.936;11.344;2024-01-07T12:18:30;96641.66;;;-0.58;75.30
25855;BME280;13680;49.936;11.344;2024-01-07T12:20:58;96639.25;;;-0.71;76.08
25855;BME280;13680;49.936;11.344;2024-01-07T12:23:24;96632.00;;;-0.64;75.70
25855;BME280;13680;49.936;11.344;2024-01-07T12:25:50;96642.91;;;-0.72;75.79
25855;BME280;13680;49.936;11.344;2024-01-07T12:28:16;96643.47;;;-0.82;75.60
25855;BME280;13680;49.936;11.344;2024-01-07T12:30:42;96648.06;;;-0.30;73.88
25855;BME280;13680;49.936;11.344;2024-01-07T12:33:07;96637.97;;;-0.92;74.97
25855;BME280;13680;49.936;11.344;2024-01-07T12:35:34;96643.34;;;-0.28;72.95
25855;BME280;13680;49.936;11.344;2024-01-07T12:38:00;96658.19;;;-0.86;74.07
25855;BME280;13680;49.936;11.344;2024-01-07T12:40:25;96644.06;;;-0.68;73.90
25855;BME280;13680;49.936;11.344;2024-01-07T12:42:52;96647.84;;;-0.76;73.53
25855;BME280;13680;49.936;11.344;2024-01-07T12:45:17;96659.34;;;-0.70;73.45
25855;BME280;13680;49.936;11.344;2024-01-07T12:47:43;96653.34;;;-0.66;72.77
25855;BME280;13680;49.936;11.344;2024-01-07T12:50:09;96656.69;;;-0.46;72.80
25855;BME280;13680;49.936;11.344;2024-01-07T12:52:38;96657.38;;;-0.51;71.97
25855;BME280;13680;49.936;11.344;2024-01-07T12:55:04;96672.31;;;-0.57;72.32
25855;BME280;13680;49.936;11.344;2024-01-07T12:57:30;96657.84;;;-0.66;72.69